XKA weather

Kantchari Airport
Kantchari, Tapoa, Burkina Faso

Public forecast

Using degrees Celsius for public forecast. Weather courtesy of forecast.io.

Closest aviation weather report (METAR) to Kantchari Airport

Report is more than 6 hours old.

Closest report is Fada N'gourma Airport, 72.3 nm (134.0 km) WSW. Retrieved 2009/09/21 17:00 UTC (10 years ago):

DFEF 211700Z 00000KT 9999 FEW0226 TCU BKN260 30/25

Closest aviation forecast (TAF) to Kantchari Airport

Closest forecast is Diori Hamani International Airport, 72.9 nm (135.0 km) NNE. Retrieved 2020/02/20 12:21 UTC (3 hours ago):

TAF DRRN 201100Z 2012/2118 09015KT 8000 NSC TEMPO 2017/2020 4800 DU BECMG 2018/2020 06005KT BECMG 2104/2106 2500 DU TEMPO 2108/2112 10018KT 1200 BLDU